Time;durP1;ratioP1;P1;durP2;ratioP2;P2;SDS_P1;SDS_P2;PMS_P1;PMS_P2;Temp;Humidity;BMP_temperature;BMP_pressure;BME280_temperature;BME280_humidity;BME280_pressure;Samples;Min_cycle;Max_cycle;Signal;HPM_P1;HPM_P2
2022/04/29 00:00:16;;;;;;;;;;;;;;;-143.90;100.00;55162.84;2097612;28;19920;-66
2022/04/29 00:01:37;;;;;;;;;;;;;;;-143.90;100.00;55152.91;2088460;28;19962;-66
2022/04/29 00:03:01;;;;;;;;;;;;;;;-143.90;100.00;55180.72;2095784;28;19927;-66
2022/04/29 00:04:22;;;;;;;;;;;;;;;-143.90;100.00;55143.00;2097274;28;19920;-66
2022/04/29 00:05:44;;;;;;;;;;;;;;;-143.90;100.00;55166.81;2098404;28;20037;-66
2022/04/29 00:07:06;;;;;;;;;;;;;;;-143.90;100.00;55176.75;2097684;28;20035;-66
2022/04/29 00:08:27;;;;;;;;;;;;;;;-143.90;100.00;55168.81;2097384;28;19928;-67
2022/04/29 00:09:47;;;;;;;;;;;;;;;-143.90;100.00;55139.03;2097780;28;19957;-66
2022/04/29 00:11:08;;;;;;;;;;;;;;;-143.90;100.00;55178.72;2097663;28;19920;-66
2022/04/29 00:12:29;;;;;;;;;;;;;;;-143.90;100.00;55143.00;2099229;28;19920;-66
2022/04/29 00:13:49;;;;;;;;;;;;;;;-143.90;100.00;55135.03;2096119;28;19926;-66
2022/04/29 00:15:13;;;;;;;;;;;;;;;-143.90;100.00;55182.69;2097386;28;20426;-66
2022/04/29 00:16:34;;;;;;;;;;;;;;;-143.90;100.00;55154.91;2096619;28;19924;-67
2022/04/29 00:17:55;;;;;;;;;;;;;;;-143.90;100.00;55111.22;2097718;28;19920;-66
2022/04/29 00:19:16;;;;;;;;;;;;;;;-143.90;100.00;55139.03;2096379;28;20028;-67
2022/04/29 00:20:38;;;;;;;;;;;;;;;-143.90;100.00;55186.69;2097343;28;19927;-66
2022/04/29 00:21:59;;;;;;;;;;;;;;;-143.90;100.00;55158.88;2098160;28;19920;-66
2022/04/29 00:23:20;;;;;;;;;;;;;;;-143.90;100.00;55139.03;2098684;28;20347;-66
2022/04/29 00:24:40;;;;;;;;;;;;;;;-143.90;100.00;55150.94;2098366;28;19920;-67
2022/04/29 00:26:01;;;;;;;;;;;;;;;-143.90;100.00;55146.97;2096223;28;19931;-66
2022/04/29 00:27:22;;;;;;;;;;;;;;;-143.90;100.00;55162.84;2097720;28;19966;-66
2022/04/29 00:28:42;;;;;;;;;;;;;;;-143.90;100.00;55137.03;2098641;28;19928;-66
2022/04/29 00:30:04;;;;;;;;;;;;;;;-143.90;100.00;55131.06;2098823;28;19920;-66
2022/04/29 00:31:25;;;;;;;;;;;;;;;-143.90;100.00;55154.91;2097058;28;19926;-66
2022/04/29 00:32:45;;;;;;;;;;;;;;;-143.90;100.00;55143.00;2087839;28;19921;-66
2022/04/29 00:34:06;;;;;;;;;;;;;;;-143.90;100.00;55127.09;2095092;28;20287;-66
2022/04/29 00:35:27;;;;;;;;;;;;;;;-143.90;100.00;55133.06;2089504;28;19973;-66
2022/04/29 00:36:48;;;;;;;;;;;;;;;-143.90;100.00;55162.84;2094091;28;19948;-66
2022/04/29 00:38:15;;;;;;;;;;;;;;;-143.90;100.00;55135.03;2096151;28;20445;-66
2022/04/29 00:39:36;;;;;;;;;;;;;;;-143.90;100.00;55152.91;2094267;28;19920;-65
2022/04/29 00:40:56;;;;;;;;;;;;;;;-143.90;100.00;55146.97;2087167;28;19985;-67
2022/04/29 00:42:18;;;;;;;;;;;;;;;-143.90;100.00;55121.16;2096058;28;19920;-66
2022/04/29 00:43:38;;;;;;;;;;;;;;;-143.90;100.00;55127.09;2097234;28;19964;-67
2022/04/29 00:44:59;;;;;;;;;;;;;;;-143.90;100.00;55135.03;2098136;28;19925;-66
2022/04/29 00:46:20;;;;;;;;;;;;;;;-143.90;100.00;55143.00;2094618;28;19974;-66
2022/04/29 00:47:41;;;;;;;;;;;;;;;-143.90;100.00;55123.13;2096001;28;19978;-66
2022/04/29 00:49:02;;;;;;;;;;;;;;;-143.90;100.00;55158.88;2087750;28;19925;-66
2022/04/29 00:50:23;;;;;;;;;;;;;;;-143.90;100.00;55139.03;2092219;28;19920;-66
2022/04/29 00:51:45;;;;;;;;;;;;;;;-143.90;100.00;55137.03;2098508;28;19920;-67
2022/04/29 00:53:06;;;;;;;;;;;;;;;-143.90;100.00;55137.03;2098480;28;20011;-65
2022/04/29 00:54:28;;;;;;;;;;;;;;;-143.90;100.00;55139.03;2095551;28;20030;-66
2022/04/29 00:55:49;;;;;;;;;;;;;;;-143.90;100.00;55115.19;2088661;28;19920;-67
2022/04/29 00:57:11;;;;;;;;;;;;;;;-143.90;100.00;55166.81;2080764;28;19932;-67
2022/04/29 00:58:33;;;;;;;;;;;;;;;-143.90;100.00;55129.09;2091194;28;19986;-66
2022/04/29 01:00:04;;;;;;;;;;;;;;;-143.90;100.00;55152.91;2091145;28;19924;-66
2022/04/29 01:01:25;;;;;;;;;;;;;;;-143.90;100.00;55154.91;2095474;28;19958;-66
2022/04/29 01:02:46;;;;;;;;;;;;;;;-143.90;100.00;55127.09;2096830;28;19924;-66
2022/04/29 01:04:07;;;;;;;;;;;;;;;-143.90;100.00;55174.75;2086568;28;19921;-66
2022/04/29 01:05:28;;;;;;;;;;;;;;;-143.90;100.00;55115.19;2079927;28;19990;-66
2022/04/29 01:06:48;;;;;;;;;;;;;;;-143.90;100.00;55166.81;2092117;28;20035;-67
2022/04/29 01:08:10;;;;;;;;;;;;;;;-143.90;100.00;55164.84;2097396;28;20350;-66
2022/04/29 01:09:31;;;;;;;;;;;;;;;-143.90;100.00;55144.97;2089244;28;19924;-66
2022/04/29 01:10:52;;;;;;;;;;;;;;;-143.90;100.00;55127.09;2093865;28;19997;-66
2022/04/29 01:12:14;;;;;;;;;;;;;;;-143.90;100.00;55143.00;2088252;28;19920;-66
2022/04/29 01:13:35;;;;;;;;;;;;;;;-143.90;100.00;55139.03;2092914;28;19924;-67
2022/04/29 01:14:56;;;;;;;;;;;;;;;-143.90;100.00;55125.13;2096200;28;19928;-67
2022/04/29 01:16:17;;;;;;;;;;;;;;;-143.90;100.00;55127.09;2087545;28;20475;-67
2022/04/29 01:17:38;;;;;;;;;;;;;;;-143.90;100.00;55123.13;2084093;28;19921;-66
2022/04/29 01:18:59;;;;;;;;;;;;;;;-143.90;100.00;55143.00;2093623;28;19997;-66
2022/04/29 01:20:20;;;;;;;;;;;;;;;-143.90;100.00;55111.22;2097494;28;19926;-67
2022/04/29 01:21:41;;;;;;;;;;;;;;;-143.90;100.00;55127.09;2088102;28;20095;-65
2022/04/29 01:23:05;;;;;;;;;;;;;;;-143.90;100.00;55146.97;2084514;28;19944;-66
2022/04/29 01:24:25;;;;;;;;;;;;;;;-143.90;100.00;55127.09;2086839;28;19928;-67
2022/04/29 01:25:46;;;;;;;;;;;;;;;-143.90;100.00;55172.78;2086243;28;19921;-67
2022/04/29 01:27:10;;;;;;;;;;;;;;;-143.90;100.00;55150.94;2085992;28;20020;-66
2022/04/29 01:28:31;;;;;;;;;;;;;;;-143.90;100.00;55139.03;2086875;28;19932;-66
2022/04/29 01:30:06;;;;;;;;;;;;;;;-143.90;100.00;55131.06;2086197;28;19935;-66
2022/04/29 01:31:28;;;;;;;;;;;;;;;-143.90;100.00;55150.94;2094736;28;20343;-66
2022/04/29 01:32:49;;;;;;;;;;;;;;;-143.90;100.00;55131.06;2088255;28;19956;-66
2022/04/29 01:34:10;;;;;;;;;;;;;;;-143.90;100.00;55148.94;2078904;28;19927;-66
2022/04/29 01:35:31;;;;;;;;;;;;;;;-143.90;100.00;55178.72;2076177;28;19955;-66
2022/04/29 01:36:51;;;;;;;;;;;;;;;-143.90;100.00;55170.78;2078251;28;19931;-66
2022/04/29 01:38:12;;;;;;;;;;;;;;;-143.90;100.00;55111.22;2079966;28;20142;-67
2022/04/29 01:39:33;;;;;;;;;;;;;;;-143.90;100.00;55115.19;2078073;28;19987;-67
2022/04/29 01:40:53;;;;;;;;;;;;;;;-143.90;100.00;55131.06;2078162;28;20002;-67
2022/04/29 01:42:18;;;;;;;;;;;;;;;-143.90;100.00;55154.91;2077359;28;20815;-66
2022/04/29 01:43:38;;;;;;;;;;;;;;;-143.90;100.00;55127.09;2080266;28;19921;-66
2022/04/29 01:45:02;;;;;;;;;;;;;;;-143.90;100.00;55139.03;2077720;28;19998;-66
2022/04/29 01:46:27;;;;;;;;;;;;;;;-143.90;100.00;55158.88;2076652;28;19979;-67
2022/04/29 01:48:10;;;;;;;;;;;;;;;-143.90;100.00;55127.09;2085919;28;19924;-66
2022/04/29 01:49:42;;;;;;;;;;;;;;;-143.90;100.00;55166.81;2076822;28;19921;-66
2022/04/29 01:51:06;;;;;;;;;;;;;;;-143.90;100.00;55144.97;2084633;28;19920;-66
2022/04/29 01:52:26;;;;;;;;;;;;;;;-143.90;100.00;55150.94;2077967;28;19920;-66
2022/04/29 01:53:53;;;;;;;;;;;;;;;-143.90;100.00;55143.00;2079676;28;19924;-65
2022/04/29 01:55:14;;;;;;;;;;;;;;;-143.90;100.00;55135.03;2081766;28;19921;-66
2022/04/29 01:56:36;;;;;;;;;;;;;;;-143.90;100.00;55135.03;2081176;28;19929;-66
2022/04/29 01:57:58;;;;;;;;;;;;;;;-143.90;100.00;55131.06;2079414;28;19927;-66
2022/04/29 01:59:19;;;;;;;;;;;;;;;-143.90;100.00;55162.84;2084188;28;20059;-64
2022/04/29 02:00:51;;;;;;;;;;;;;;;-143.90;100.00;55135.03;2078097;28;20023;-66
2022/04/29 02:02:13;;;;;;;;;;;;;;;-143.90;100.00;55123.13;2084200;28;19920;-66
2022/04/29 02:03:36;;;;;;;;;;;;;;;-143.90;100.00;55127.09;2078598;28;19956;-66
2022/04/29 02:04:57;;;;;;;;;;;;;;;-143.90;100.00;55166.81;2078456;28;19920;-67
2022/04/29 02:06:19;;;;;;;;;;;;;;;-143.90;100.00;55164.84;2078524;28;20672;-66
2022/04/29 02:07:40;;;;;;;;;;;;;;;-143.90;100.00;55095.34;2077185;28;20301;-65
2022/04/29 02:09:01;;;;;;;;;;;;;;;-143.90;100.00;55127.09;2079468;28;20111;-66
2022/04/29 02:10:23;;;;;;;;;;;;;;;-143.90;100.00;55135.03;2085778;28;19920;-65
2022/04/29 02:12:03;;;;;;;;;;;;;;;-143.90;100.00;55123.13;2082379;28;20467;-65
2022/04/29 02:13:45;;;;;;;;;;;;;;;-143.90;100.00;55146.97;2080205;28;19920;-66
2022/04/29 02:15:16;;;;;;;;;;;;;;;-143.90;100.00;55168.81;2079861;28;19920;-67
2022/04/29 02:16:38;;;;;;;;;;;;;;;-143.90;100.00;55125.13;2077824;28;19975;-66
2022/04/29 02:18:00;;;;;;;;;;;;;;;-143.90;100.00;55139.03;2082520;28;19924;-66
2022/04/29 02:19:22;;;;;;;;;;;;;;;-143.90;100.00;55150.94;2077281;28;20427;-66
2022/04/29 02:20:43;;;;;;;;;;;;;;;-143.90;100.00;55139.03;2083756;28;19920;-66
2022/04/29 02:22:04;;;;;;;;;;;;;;;-143.90;100.00;55143.00;2077990;28;19999;-66
2022/04/29 02:23:25;;;;;;;;;;;;;;;-143.90;100.00;55137.03;2079947;28;19927;-66
2022/04/29 02:24:47;;;;;;;;;;;;;;;-143.90;100.00;55164.84;2078096;28;19927;-66
2022/04/29 02:26:09;;;;;;;;;;;;;;;-143.90;100.00;55117.19;2083813;28;19917;-66
2022/04/29 02:27:30;;;;;;;;;;;;;;;-143.90;100.00;55135.03;2082133;28;20495;-66
2022/04/29 02:28:51;;;;;;;;;;;;;;;-143.90;100.00;55127.09;2083806;28;19955;-66
2022/04/29 02:30:13;;;;;;;;;;;;;;;-143.90;100.00;55154.91;2077146;28;19948;-66
2022/04/29 02:31:34;;;;;;;;;;;;;;;-143.90;100.00;55150.94;2084175;28;20023;-66
2022/04/29 02:32:54;;;;;;;;;;;;;;;-143.90;100.00;55154.91;2083940;28;19932;-66
2022/04/29 02:34:15;;;;;;;;;;;;;;;-143.90;100.00;55127.09;2081183;28;19921;-66
2022/04/29 02:35:36;;;;;;;;;;;;;;;-143.90;100.00;55141.00;2087556;28;19920;-67
2022/04/29 02:36:56;;;;;;;;;;;;;;;-143.90;100.00;55135.03;2095132;28;20046;-66
2022/04/29 02:38:18;;;;;;;;;;;;;;;-143.90;100.00;55127.09;2088661;28;19920;-65
2022/04/29 02:39:38;;;;;;;;;;;;;;;-143.90;100.00;55123.13;2093002;28;19927;-65
2022/04/29 02:40:59;;;;;;;;;;;;;;;-143.90;100.00;55156.88;2095838;28;19973;-64
2022/04/29 02:42:20;;;;;;;;;;;;;;;-143.90;100.00;55156.88;2095032;28;19920;-66
2022/04/29 02:43:41;;;;;;;;;;;;;;;-143.90;100.00;55146.97;2094578;28;20454;-64
2022/04/29 02:45:03;;;;;;;;;;;;;;;-143.90;100.00;55131.06;2089152;28;20065;-66
2022/04/29 02:47:06;;;;;;;;;;;;;;;-143.90;100.00;55127.09;2088675;28;19950;-65
2022/04/29 02:48:18;;;;;;;;;;;;;;;-143.90;100.00;55121.16;2090761;28;19928;-66
2022/04/29 02:49:43;;;;;;;;;;;;;;;-143.90;100.00;55150.94;2087160;28;19927;-66
2022/04/29 02:51:04;;;;;;;;;;;;;;;-143.90;100.00;55162.84;2093590;28;19931;-65
2022/04/29 02:52:25;;;;;;;;;;;;;;;-143.90;100.00;55150.94;2091077;28;20575;-65
2022/04/29 02:53:46;;;;;;;;;;;;;;;-143.90;100.00;55131.06;2087225;28;19920;-67
2022/04/29 02:55:07;;;;;;;;;;;;;;;-143.90;100.00;55141.00;2094564;28;19921;-67
2022/04/29 02:56:53;;;;;;;;;;;;;;;-143.90;100.00;55131.06;2093016;28;19927;-66
2022/04/29 02:58:36;;;;;;;;;;;;;;;-143.90;100.00;55103.28;2089156;28;19921;-66
2022/04/29 02:59:57;;;;;;;;;;;;;;;-143.90;100.00;55150.94;2092892;28;19940;-66
2022/04/29 03:01:17;;;;;;;;;;;;;;;-143.90;100.00;55121.16;2097771;28;19920;-66
2022/04/29 03:02:38;;;;;;;;;;;;;;;-143.90;100.00;55107.25;2088959;28;20416;-66
2022/04/29 03:03:59;;;;;;;;;;;;;;;-143.90;100.00;55135.03;2085886;28;20011;-66
2022/04/29 03:05:20;;;;;;;;;;;;;;;-143.90;100.00;55152.91;2087790;28;20778;-65
2022/04/29 03:06:41;;;;;;;;;;;;;;;-143.90;100.00;55111.22;2084686;28;19936;-65
2022/04/29 03:08:02;;;;;;;;;;;;;;;-143.90;100.00;55154.91;2086429;28;19921;-66
2022/04/29 03:09:25;;;;;;;;;;;;;;;-143.90;100.00;55107.25;2085663;28;19921;-66
2022/04/29 03:10:49;;;;;;;;;;;;;;;-143.90;100.00;55156.88;2086289;28;20038;-66
2022/04/29 03:12:12;;;;;;;;;;;;;;;-143.90;100.00;55180.72;2086039;28;20399;-66
2022/04/29 03:13:33;;;;;;;;;;;;;;;-143.90;100.00;55131.06;2084209;28;20031;-66
2022/04/29 03:15:17;;;;;;;;;;;;;;;-143.90;100.00;55150.94;2091427;28;19928;-66
2022/04/29 03:16:40;;;;;;;;;;;;;;;-143.90;100.00;55164.84;2087346;28;20400;-66
2022/04/29 03:18:19;;;;;;;;;;;;;;;-143.90;100.00;55156.88;2091894;28;20031;-66
2022/04/29 03:19:39;;;;;;;;;;;;;;;-143.90;100.00;55154.91;2090986;28;20016;-66
2022/04/29 03:21:00;;;;;;;;;;;;;;;-143.90;100.00;55154.91;2092924;28;20019;-67
2022/04/29 03:22:21;;;;;;;;;;;;;;;-143.90;100.00;55119.16;2087515;28;20499;-65
2022/04/29 03:23:42;;;;;;;;;;;;;;;-143.90;100.00;55154.91;2090524;28;19920;-66
2022/04/29 03:25:05;;;;;;;;;;;;;;;-143.90;100.00;55139.03;2089465;28;20483;-66
2022/04/29 03:26:26;;;;;;;;;;;;;;;-143.90;100.00;55115.19;2088396;28;19971;-66
2022/04/29 03:27:47;;;;;;;;;;;;;;;-143.90;100.00;55135.03;2094758;28;19928;-66
2022/04/29 03:29:08;;;;;;;;;;;;;;;-143.90;100.00;55133.06;2089092;28;19927;-66
2022/04/29 03:30:28;;;;;;;;;;;;;;;-143.90;100.00;55127.09;2085805;28;19926;-66
2022/04/29 03:31:49;;;;;;;;;;;;;;;-143.90;100.00;55150.94;2089856;28;19919;-66
2022/04/29 03:33:30;;;;;;;;;;;;;;;-143.90;100.00;55150.94;2097075;28;19924;-66
2022/04/29 03:34:50;;;;;;;;;;;;;;;-143.90;100.00;55113.22;2089531;28;19930;-66
2022/04/29 03:36:11;;;;;;;;;;;;;;;-143.90;100.00;55154.91;2087471;28;19940;-66
2022/04/29 03:37:33;;;;;;;;;;;;;;;-143.90;100.00;55135.03;2096185;28;19924;-66
2022/04/29 03:38:54;;;;;;;;;;;;;;;-143.90;100.00;55083.41;2092083;28;19920;-65
2022/04/29 03:40:15;;;;;;;;;;;;;;;-143.90;100.00;55146.97;2094282;28;19921;-67
2022/04/29 03:41:35;;;;;;;;;;;;;;;-143.90;100.00;55144.97;2096512;28;19920;-66
2022/04/29 03:42:59;;;;;;;;;;;;;;;-143.90;100.00;55107.25;2094275;28;20003;-66
2022/04/29 03:44:21;;;;;;;;;;;;;;;-143.90;100.00;55143.00;2090372;28;19920;-66
2022/04/29 03:45:41;;;;;;;;;;;;;;;-143.90;100.00;55127.09;2086780;28;20269;-66
2022/04/29 03:47:06;;;;;;;;;;;;;;;-143.90;100.00;55162.84;2088210;28;19920;-66
2022/04/29 03:50:36;;;;;;;;;;;;;;;-143.90;100.00;55131.06;2090628;28;19991;-66
2022/04/29 03:52:06;;;;;;;;;;;;;;;-143.90;100.00;55158.88;2087099;28;19920;-67
2022/04/29 03:53:27;;;;;;;;;;;;;;;-143.90;100.00;55170.78;2085701;28;19920;-65
2022/04/29 03:54:57;;;;;;;;;;;;;;;-143.90;100.00;55144.97;2096505;28;19920;-67
2022/04/29 03:56:19;;;;;;;;;;;;;;;-143.90;100.00;55143.00;2088832;28;20573;-66
2022/04/29 03:57:39;;;;;;;;;;;;;;;-143.90;100.00;55172.78;2083816;28;19968;-66
2022/04/29 03:59:02;;;;;;;;;;;;;;;-143.90;100.00;55133.06;2086355;28;19925;-66
2022/04/29 04:00:24;;;;;;;;;;;;;;;-143.90;100.00;55135.03;2087869;28;20305;-67
2022/04/29 04:01:46;;;;;;;;;;;;;;;-143.90;100.00;55107.25;2087129;28;19991;-66
2022/04/29 04:03:07;;;;;;;;;;;;;;;-143.90;100.00;55135.03;2086670;28;19925;-66
2022/04/29 04:04:30;;;;;;;;;;;;;;;-143.90;100.00;55158.88;2093909;28;19920;-65
2022/04/29 04:07:32;;;;;;;;;;;;;;;-143.90;100.00;55115.19;2096663;28;19940;-67
2022/04/29 04:09:05;;;;;;;;;;;;;;;-143.90;100.00;55146.97;2087387;28;19925;-66
2022/04/29 04:10:26;;;;;;;;;;;;;;;-143.90;100.00;55178.72;2092729;28;20390;-66
2022/04/29 04:11:48;;;;;;;;;;;;;;;-143.90;100.00;55113.22;2088469;28;19921;-66
2022/04/29 04:13:18;;;;;;;;;;;;;;;-143.90;100.00;55162.84;2089046;28;20280;-66
2022/04/29 04:14:47;;;;;;;;;;;;;;;-143.90;100.00;55127.09;2092797;28;19966;-66
2022/04/29 04:16:08;;;;;;;;;;;;;;;-143.90;100.00;55131.06;2087759;28;19928;-65
2022/04/29 04:17:31;;;;;;;;;;;;;;;-143.90;100.00;55174.75;2086779;28;19928;-66
2022/04/29 04:18:53;;;;;;;;;;;;;;;-143.90;100.00;55123.13;2084761;28;19920;-67
2022/04/29 04:20:14;;;;;;;;;;;;;;;-143.90;100.00;55111.22;2094425;28;19920;-67
2022/04/29 04:21:45;;;;;;;;;;;;;;;-143.90;100.00;55166.81;2089027;28;19932;-67
2022/04/29 04:23:07;;;;;;;;;;;;;;;-143.90;100.00;55178.72;2085919;28;19947;-66
2022/04/29 04:24:28;;;;;;;;;;;;;;;-143.90;100.00;55162.84;2086459;28;19963;-66
2022/04/29 04:25:50;;;;;;;;;;;;;;;-143.90;100.00;55162.84;2087861;28;20334;-67
2022/04/29 04:27:12;;;;;;;;;;;;;;;-143.90;100.00;55123.13;2084893;28;20019;-66
2022/04/29 04:28:34;;;;;;;;;;;;;;;-143.90;100.00;55152.91;2087228;28;19920;-66
2022/04/29 04:29:56;;;;;;;;;;;;;;;-143.90;100.00;55146.97;2086651;28;20026;-67
2022/04/29 04:31:21;;;;;;;;;;;;;;;-143.90;100.00;55192.63;2086870;28;20411;-66
2022/04/29 04:32:45;;;;;;;;;;;;;;;-143.90;100.00;55168.81;2089107;28;19967;-67
2022/04/29 04:35:45;;;;;;;;;;;;;;;-143.90;100.00;55162.84;2082649;28;20277;-67
2022/04/29 04:37:07;;;;;;;;;;;;;;;-143.90;100.00;55127.09;2077583;28;21587;-66
2022/04/29 04:38:28;;;;;;;;;;;;;;;-143.90;100.00;55158.88;2085341;28;19998;-66
2022/04/29 04:40:00;;;;;;;;;;;;;;;-143.90;100.00;55139.03;2077967;28;19956;-66
2022/04/29 04:41:31;;;;;;;;;;;;;;;-143.90;100.00;55182.69;2078463;28;19925;-66
2022/04/29 04:42:53;;;;;;;;;;;;;;;-143.90;100.00;55127.09;2068864;28;20373;-66
2022/04/29 04:44:22;;;;;;;;;;;;;;;-143.90;100.00;55095.34;2076417;28;20044;-66
2022/04/29 04:45:44;;;;;;;;;;;;;;;-143.90;100.00;55148.94;2077059;28;19974;-66
2022/04/29 04:47:23;;;;;;;;;;;;;;;-143.90;100.00;55150.94;2079325;28;19929;-66
2022/04/29 04:49:02;;;;;;;;;;;;;;;-143.90;100.00;55144.97;2080220;28;20514;-66
2022/04/29 04:50:46;;;;;;;;;;;;;;;-143.90;100.00;55117.19;2079161;28;20051;-66
2022/04/29 04:52:06;;;;;;;;;;;;;;;-143.90;100.00;55139.03;2087422;28;19995;-66
2022/04/29 04:53:27;;;;;;;;;;;;;;;-143.90;100.00;55182.69;2082494;28;19939;-66
2022/04/29 04:54:48;;;;;;;;;;;;;;;-143.90;100.00;55158.88;2076231;28;20417;-66
2022/04/29 04:56:09;;;;;;;;;;;;;;;-143.90;100.00;55113.22;2083595;28;19924;-66
2022/04/29 04:57:30;;;;;;;;;;;;;;;-143.90;100.00;55152.91;2079496;28;19933;-66
2022/04/29 04:58:50;;;;;;;;;;;;;;;-143.90;100.00;55099.31;2076433;28;19917;-66
2022/04/29 05:00:12;;;;;;;;;;;;;;;-143.90;100.00;55170.78;2085520;28;19928;-66
2022/04/29 05:01:52;;;;;;;;;;;;;;;-143.90;100.00;55139.03;2079530;28;19957;-66
2022/04/29 05:03:32;;;;;;;;;;;;;;;-143.90;100.00;55107.25;2079977;28;19925;-67
2022/04/29 05:05:12;;;;;;;;;;;;;;;-143.90;100.00;55111.22;2078738;28;20356;-66
2022/04/29 05:06:38;;;;;;;;;;;;;;;-143.90;100.00;55164.84;2079677;28;19925;-66
2022/04/29 05:07:59;;;;;;;;;;;;;;;-143.90;100.00;55131.06;2078861;28;20289;-66
2022/04/29 05:09:20;;;;;;;;;;;;;;;-143.90;100.00;55131.06;2083942;28;20038;-66
2022/04/29 05:10:47;;;;;;;;;;;;;;;-143.90;100.00;55123.13;2078025;28;19995;-66
2022/04/29 05:12:09;;;;;;;;;;;;;;;-143.90;100.00;55125.13;2078298;28;19920;-66
2022/04/29 05:14:08;;;;;;;;;;;;;;;-143.90;100.00;55139.03;2076136;28;19939;-64
2022/04/29 05:15:32;;;;;;;;;;;;;;;-143.90;100.00;55119.16;2079531;28;19966;-67
2022/04/29 05:16:53;;;;;;;;;;;;;;;-143.90;100.00;55139.03;2078711;28;20329;-66
2022/04/29 05:18:33;;;;;;;;;;;;;;;-143.90;100.00;55164.84;2079455;28;19921;-66
2022/04/29 05:20:02;;;;;;;;;;;;;;;-143.90;100.00;55141.00;2080186;28;20377;-65
2022/04/29 05:21:25;;;;;;;;;;;;;;;-143.90;100.00;55158.88;2077133;28;19920;-66
2022/04/29 05:22:47;;;;;;;;;;;;;;;-143.90;100.00;55119.16;2080123;28;19970;-65
2022/04/29 05:24:08;;;;;;;;;;;;;;;-143.90;100.00;55127.09;2087837;28;20027;-65
2022/04/29 05:25:47;;;;;;;;;;;;;;;-143.90;100.00;55135.03;2080230;28;19927;-66
2022/04/29 05:27:40;;;;;;;;;;;;;;;-143.90;100.00;55162.84;2079767;28;19970;-66
2022/04/29 05:29:12;;;;;;;;;;;;;;;-143.90;100.00;55154.91;2079157;28;19929;-66
2022/04/29 05:30:56;;;;;;;;;;;;;;;-143.90;100.00;55150.94;2078439;28;20062;-65
2022/04/29 05:32:37;;;;;;;;;;;;;;;-143.90;100.00;55121.16;2079169;28;20383;-66
2022/04/29 05:34:16;;;;;;;;;;;;;;;-143.90;100.00;55162.84;2083949;28;19921;-66
2022/04/29 05:35:55;;;;;;;;;;;;;;;-143.90;100.00;55135.03;2096281;28;19920;-66
2022/04/29 05:37:35;;;;;;;;;;;;;;;-143.90;100.00;55135.03;2097252;28;20337;-67
2022/04/29 05:42:23;;;;;;;;;;;;;;;-143.90;100.00;55133.06;2091120;28;20333;-66
2022/04/29 05:43:43;;;;;;;;;;;;;;;-143.90;100.00;55135.03;2096195;28;19920;-66
2022/04/29 05:45:04;;;;;;;;;;;;;;;-143.90;100.00;55127.09;2097801;28;19919;-64
2022/04/29 05:46:25;;;;;;;;;;;;;;;-143.90;100.00;55131.06;2090635;28;20267;-66
2022/04/29 05:47:46;;;;;;;;;;;;;;;-143.90;100.00;55144.97;2085391;28;19920;-66
2022/04/29 05:49:07;;;;;;;;;;;;;;;-143.90;100.00;55131.06;2089636;28;19920;-66
2022/04/29 05:50:33;;;;;;;;;;;;;;;-143.90;100.00;55131.06;2085775;28;20058;-66
2022/04/29 05:51:55;;;;;;;;;;;;;;;-143.90;100.00;55150.94;2085075;28;19942;-66
2022/04/29 05:53:20;;;;;;;;;;;;;;;-143.90;100.00;55150.94;2093552;28;19923;-67
2022/04/29 05:54:50;;;;;;;;;;;;;;;-143.90;100.00;55131.06;2086711;28;19920;-67
2022/04/29 05:56:17;;;;;;;;;;;;;;;-143.90;100.00;55085.41;2085682;28;20015;-66
2022/04/29 05:57:38;;;;;;;;;;;;;;;-143.90;100.00;55168.81;2093935;28;20328;-67
2022/04/29 05:59:00;;;;;;;;;;;;;;;-143.90;100.00;55158.88;2087600;28;19928;-65
2022/04/29 06:00:39;;;;;;;;;;;;;;;-143.90;100.00;55119.16;2094822;28;19920;-66
2022/04/29 06:02:03;;;;;;;;;;;;;;;-143.90;100.00;55109.22;2087112;28;20465;-66
2022/04/29 06:03:46;;;;;;;;;;;;;;;-143.90;100.00;55093.34;2086307;28;19921;-67
2022/04/29 06:05:07;;;;;;;;;;;;;;;-143.90;100.00;55131.06;2088064;28;20030;-67
2022/04/29 06:06:28;;;;;;;;;;;;;;;-143.90;100.00;55119.16;2085244;28;20367;-66
2022/04/29 06:07:49;;;;;;;;;;;;;;;-143.90;100.00;55146.97;2092673;28;20342;-66
2022/04/29 06:09:36;;;;;;;;;;;;;;;-143.90;100.00;55139.03;2095092;28;19920;-66
2022/04/29 06:10:56;;;;;;;;;;;;;;;-143.90;100.00;55139.03;2095522;28;19920;-67
2022/04/29 06:12:17;;;;;;;;;;;;;;;-143.90;100.00;55143.00;2089093;28;19933;-66
2022/04/29 06:13:38;;;;;;;;;;;;;;;-143.90;100.00;55143.00;2094450;28;19920;-65
2022/04/29 06:15:21;;;;;;;;;;;;;;;-143.90;100.00;55123.13;2097514;28;20417;-66
2022/04/29 06:17:00;;;;;;;;;;;;;;;-143.90;100.00;55135.03;2096642;28;20026;-66
2022/04/29 06:18:39;;;;;;;;;;;;;;;-143.90;100.00;55131.06;2097104;28;19937;-66
2022/04/29 06:20:20;;;;;;;;;;;;;;;-143.90;100.00;55141.00;2088728;28;19927;-67
2022/04/29 06:22:07;;;;;;;;;;;;;;;-143.90;100.00;55156.88;2087388;28;19919;-66
2022/04/29 06:23:33;;;;;;;;;;;;;;;-143.90;100.00;55131.06;2088735;28;19920;-66
2022/04/29 06:24:56;;;;;;;;;;;;;;;-143.90;100.00;55144.97;2087467;28;19928;-66
2022/04/29 06:26:16;;;;;;;;;;;;;;;-143.90;100.00;55129.09;2084859;28;19924;-66
2022/04/29 06:27:37;;;;;;;;;;;;;;;-143.90;100.00;55143.00;2094455;28;19927;-66
2022/04/29 06:28:58;;;;;;;;;;;;;;;-143.90;100.00;55154.91;2086609;28;20335;-66
2022/04/29 06:30:19;;;;;;;;;;;;;;;-143.90;100.00;55119.16;2085635;28;19935;-66
2022/04/29 06:31:54;;;;;;;;;;;;;;;-143.90;100.00;55150.94;2086804;28;20755;-66
2022/04/29 06:33:34;;;;;;;;;;;;;;;-143.90;100.00;55135.03;2095264;28;20455;-66
2022/04/29 06:34:55;;;;;;;;;;;;;;;-143.90;100.00;55133.06;2088024;28;19925;-66
2022/04/29 06:36:16;;;;;;;;;;;;;;;-143.90;100.00;55111.22;2088731;28;20461;-66
2022/04/29 06:37:40;;;;;;;;;;;;;;;-143.90;100.00;55087.41;2091320;28;19925;-66
2022/04/29 06:39:19;;;;;;;;;;;;;;;-143.90;100.00;55162.84;2086981;28;20471;-66
2022/04/29 06:40:58;;;;;;;;;;;;;;;-143.90;100.00;55141.00;2096781;28;20095;-66
2022/04/29 06:42:45;;;;;;;;;;;;;;;-143.90;100.00;55135.03;2088157;28;19986;-67
2022/04/29 06:44:24;;;;;;;;;;;;;;;-143.90;100.00;55156.88;2096792;28;20035;-67
2022/04/29 06:46:25;;;;;;;;;;;;;;;-143.90;100.00;55150.94;2095741;28;20827;-66
2022/04/29 06:47:57;;;;;;;;;;;;;;;-143.90;100.00;55150.94;2094924;28;20379;-66
2022/04/29 06:49:37;;;;;;;;;;;;;;;-143.90;100.00;55143.00;2095100;28;19920;-66
2022/04/29 06:51:16;;;;;;;;;;;;;;;-143.90;100.00;55111.22;2094760;28;19923;-66
2022/04/29 06:52:57;;;;;;;;;;;;;;;-143.90;100.00;55127.09;2095284;28;20100;-66
2022/04/29 06:54:23;;;;;;;;;;;;;;;-143.90;100.00;55141.00;2087252;28;20330;-66
2022/04/29 06:55:54;;;;;;;;;;;;;;;-143.90;100.00;55115.19;2090348;28;19924;-65
2022/04/29 06:57:15;;;;;;;;;;;;;;;-143.90;100.00;55139.03;2088479;28;20457;-66
2022/04/29 06:58:36;;;;;;;;;;;;;;;-143.90;100.00;55144.97;2094111;28;19920;-66
2022/04/29 06:59:57;;;;;;;;;;;;;;;-143.90;100.00;55107.25;2095203;28;19931;-67
2022/04/29 07:01:17;;;;;;;;;;;;;;;-143.90;100.00;55127.09;2088932;28;20031;-66
2022/04/29 07:02:38;;;;;;;;;;;;;;;-143.90;100.00;55131.06;2087775;28;20420;-66
2022/04/29 07:04:06;;;;;;;;;;;;;;;-143.90;100.00;55160.84;2088603;28;19923;-64
2022/04/29 07:05:28;;;;;;;;;;;;;;;-143.90;100.00;55119.16;2088613;28;20023;-65
2022/04/29 07:06:54;;;;;;;;;;;;;;;-143.90;100.00;55131.06;2087562;28;19942;-66
2022/04/29 07:08:15;;;;;;;;;;;;;;;-143.90;100.00;55139.03;2087173;28;20002;-65
2022/04/29 07:10:09;;;;;;;;;;;;;;;-143.90;100.00;55139.03;2073341;28;19917;-65
2022/04/29 07:11:59;;;;;;;;;;;;;;;-143.90;100.00;55121.16;2099250;28;20007;-65
2022/04/29 07:13:30;;;;;;;;;;;;;;;-143.90;100.00;55162.84;2090519;28;19938;-65
2022/04/29 07:14:52;;;;;;;;;;;;;;;-143.90;100.00;55154.91;2086630;28;19931;-65
2022/04/29 07:16:13;;;;;;;;;;;;;;;-143.90;100.00;55146.97;2087239;28;20017;-65